Weather reports worldwide

Advertisment
Wilhelminadorp aws, Netherlands (6323): temperature & dewpoint: 28.05.2020 22:00:00 - 03.06.2020 22:00:00 (CEST)Wilhelminadorp aws, Netherlands (6323): temperature 5cm & temperature -5cm: 28.05.2020 22:00:00 - 03.06.2020 22:00:00 (CEST)Wilhelminadorp aws, Netherlands (6323): temperature -20cm & temperature -100cm: 28.05.2020 22:00:00 - 03.06.2020 22:00:00 (CEST)Wilhelminadorp aws, Netherlands (6323): wind speed & gusts: 28.05.2020 22:00:00 - 03.06.2020 22:00:00 (CEST)Wilhelminadorp aws, Netherlands (6323): wind direction: 28.05.2020 22:00:00 - 03.06.2020 22:00:00 (CEST)Wilhelminadorp aws, Netherlands (6323): reduced air pressure: 28.05.2020 22:00:00 - 03.06.2020 22:00:00 (CEST)Wilhelminadorp aws, Netherlands (6323): precipitation: 28.05.2020 22:00:00 - 03.06.2020 22:00:00 (CEST)
Date & Time tt [°C] td [°C] tt 5cm [°C] tt -5cm [°C] tt -20cm [°C] tt -100cm [°C] ff [km/h] ff [kn] fx [km/h] fx [kn] dd ppp [hPa] rr [mm]
03.06.2020 22:00:00 - - - - - - - - - - - - -
03.06.2020 21:00:00 14,9 12,2 14,9 21,7 20,4 15,0 18 10 29 16 N 1003,8 0,0
03.06.2020 20:00:00 15,6 12,4 16,0 22,2 20,4 15,0 22 12 32 18 NNW 1004,1 0,0
03.06.2020 19:00:00 16,4 12,5 17,6 22,4 20,3 15,0 25 14 32 18 NNW 1004,2 0,0
03.06.2020 18:00:00 17,5 11,4 18,7 22,5 20,1 14,9 22 12 29 16 NNW 1004,6 0,0
03.06.2020 17:00:00 17,1 11,8 18,3 22,5 19,9 14,9 18 10 29 16 NNW 1005,1 0,0
03.06.2020 16:00:00 18,4 13,0 20,5 22,2 19,6 14,9 18 10 29 16 NW 1005,5 0,0
03.06.2020 15:00:00 18,7 12,8 20,8 21,7 19,3 14,9 18 10 25 14 NW 1005,8 0,0
03.06.2020 14:00:00 18,0 12,7 19,7 21,3 19,0 14,9 14 8 22 12 NNW 1006,3 0,0
03.06.2020 13:00:00 18,4 12,2 20,3 20,6 18,8 14,9 14 8 22 12 NNW 1006,7 0,0
03.06.2020 12:00:00 18,4 12,7 21,0 19,7 18,6 14,9 11 6 18 10 WNW 1007,1 0,0
03.06.2020 11:00:00 17,0 12,4 20,0 18,9 18,5 14,9 11 6 18 10 NW 1007,4 0,0
03.06.2020 10:00:00 15,2 12,0 16,8 18,5 18,6 14,9 11 6 18 10 NW 1007,6 0,0
03.06.2020 09:00:00 14,3 11,7 15,2 18,3 18,7 14,9 14 8 18 10 WNW 1008,0 0,0
03.06.2020 08:00:00 12,8 11,7 12,9 18,3 18,9 14,9 11 6 22 12 W 1008,3 0,0
03.06.2020 07:00:00 12,3 11,9 12,5 18,5 19,0 14,8 11 6 18 10 WNW 1008,6 0,0
03.06.2020 06:00:00 12,2 12,0 12,2 18,6 19,2 14,8 7 4 18 10 WNW 1009,4 0,0
03.06.2020 05:00:00 12,2 12,0 12,2 18,8 19,4 14,8 11 6 18 10 WNW 1009,0 0,0
03.06.2020 04:00:00 12,6 12,1 12,6 19,0 19,7 14,8 14 8 18 10 W 1009,4 0,0
03.06.2020 03:00:00 12,4 11,5 11,6 19,4 19,9 14,8 11 6 11 6 WSW 1010,4 0,0
03.06.2020 02:00:00 12,6 11,5 11,2 19,9 20,2 14,8 7 4 11 6 W 1011,2 0,0
03.06.2020 01:00:00 12,5 12,1 11,4 20,4 20,5 14,8 7 4 11 6 WNW 1011,9 0,0
03.06.2020 00:00:00 13,1 12,5 12,1 21,0 20,7 14,8 4 2 14 8 WNW 1012,6 0,0
02.06.2020 23:00:00 13,5 12,7 12,9 21,6 20,9 14,8 7 4 14 8 WNW 1013,4 0,0
02.06.2020 22:00:00 14,6 13,0 14,0 22,3 21,0 14,8 11 6 14 8 WNW 1013,7 0,0
02.06.2020 21:00:00 16,8 13,4 16,9 22,9 21,1 14,8 7 4 14 8 WNW 1013,9 0,0
02.06.2020 20:00:00 17,6 13,8 18,3 23,5 21,0 14,8 11 6 18 10 NW 1014,5 0,0
02.06.2020 19:00:00 19,4 12,4 20,7 23,9 20,8 14,7 14 8 22 12 NW 1014,9 0,0
02.06.2020 18:00:00 19,5 13,2 21,0 24,1 20,5 14,7 18 10 25 14 NW 1015,3 0,0
02.06.2020 17:00:00 21,3 13,0 23,3 23,9 20,2 14,7 18 10 25 14 NW 1015,9 0,0
02.06.2020 16:00:00 20,7 13,4 23,2 23,5 19,7 14,7 18 10 29 16 NW 1016,5 0,0
02.06.2020 15:00:00 22,8 12,2 25,9 22,7 19,2 14,7 14 8 22 12 NW 1016,8 0,0
02.06.2020 14:00:00 23,7 10,2 26,8 21,7 18,8 14,7 14 8 22 12 NW 1017,2 0,0
02.06.2020 13:00:00 23,3 12,1 26,0 20,6 18,5 14,7 14 8 25 14 NW 1017,8 0,0
02.06.2020 12:00:00 22,9 10,9 26,2 19,6 18,2 14,7 14 8 22 12 NW 1018,1 0,0
02.06.2020 11:00:00 22,8 12,2 25,2 18,7 18,1 14,7 11 6 18 10 WNW 1018,4 0,0
02.06.2020 10:00:00 21,0 12,5 22,9 17,9 18,1 14,7 11 6 14 8 NW 1018,6 0,0
02.06.2020 09:00:00 19,5 14,0 20,9 17,4 18,2 14,7 4 2 7 4 N 1018,8 0,0
02.06.2020 08:00:00 17,1 14,8 17,2 17,3 18,4 14,7 4 2 7 4 N 1018,8 0,0
02.06.2020 07:00:00 13,2 12,0 11,4 17,4 18,7 14,7 4 2 7 4 NW 1018,9 0,0
02.06.2020 06:00:00 11,4 10,7 8,4 17,8 18,9 14,7 4 2 7 4 N 1018,9 7,2
02.06.2020 05:00:00 12,6 11,6 9,2 18,2 19,2 14,6 4 2 7 4 N 1019,0 0,0
02.06.2020 04:00:00 12,1 10,6 9,2 18,7 19,5 14,6 7 4 7 4 NNW 1019,3 0,0
02.06.2020 03:00:00 12,4 10,8 9,3 19,2 19,8 14,6 4 2 7 4 NW 1019,6 0,0
02.06.2020 02:00:00 13,5 11,6 10,2 19,8 20,1 14,6 7 4 7 4 NNW 1020,1 0,0
02.06.2020 01:00:00 14,4 12,6 11,7 20,4 20,4 14,6 4 2 11 6 N 1020,4 0,0
02.06.2020 00:00:00 15,4 12,7 13,9 21,1 20,6 14,6 7 4 14 8 NE 1020,4 0,0
01.06.2020 23:00:00 16,8 12,7 15,3 21,7 20,8 14,6 7 4 18 10 NNE 1020,5 0,0
01.06.2020 22:00:00 18,5 12,1 17,5 22,4 20,9 14,6 11 6 22 12 N 1020,5 0,0
01.06.2020 21:00:00 21,1 9,6 20,5 23,0 20,9 14,6 14 8 25 14 NE 1020,0 0,0
01.06.2020 20:00:00 22,2 9,9 22,7 23,5 20,8 14,6 18 10 29 16 NE 1020,1 0,0
01.06.2020 19:00:00 22,8 11,5 24,0 23,7 20,7 14,6 18 10 29 16 NNE 1020,3 0,0
01.06.2020 18:00:00 21,8 11,9 22,5 24,1 20,4 14,6 22 12 32 18 NNE 1020,6 0,0
01.06.2020 17:00:00 23,8 11,3 25,6 24,0 20,0 14,6 18 10 29 16 NNE 1020,8 0,0
01.06.2020 16:00:00 23,8 9,8 26,6 23,5 19,5 14,5 22 12 29 16 NE 1021,1 0,0
01.06.2020 15:00:00 23,3 9,8 25,4 22,8 19,1 14,5 18 10 32 18 NNE 1021,5 0,0
01.06.2020 14:00:00 23,1 10,7 26,7 21,8 18,6 14,5 22 12 32 18 NE 1021,8 0,0
01.06.2020 13:00:00 22,8 10,4 26,2 20,6 18,2 14,5 22 12 32 18 NE 1022,1 0,0
01.06.2020 12:00:00 21,8 11,5 24,9 19,4 18,0 14,5 18 10 25 14 ENE 1022,5 0,0
01.06.2020 11:00:00 20,6 11,5 23,3 18,4 17,9 14,5 14 8 25 14 ENE 1022,6 0,0
01.06.2020 10:00:00 18,6 11,1 20,3 17,7 17,9 14,5 18 10 22 12 E 1022,8 0,0
01.06.2020 09:00:00 17,6 11,2 18,2 17,4 18,1 14,5 14 8 22 12 E 1022,7 0,0
01.06.2020 08:00:00 15,0 9,9 14,5 17,5 18,2 14,5 11 6 22 12 E 1022,5 0,0
01.06.2020 07:00:00 14,6 9,4 13,7 17,7 18,4 14,5 18 10 25 14 E 1022,4 0,0
01.06.2020 06:00:00 14,0 10,1 12,6 17,9 18,7 14,5 11 6 18 10 E 1022,2 0,0
01.06.2020 05:00:00 14,4 10,6 13,2 18,2 18,9 14,5 11 6 18 10 ENE 1022,2 0,0
01.06.2020 04:00:00 14,5 11,3 13,3 18,5 19,1 14,5 14 8 18 10 NE 1022,2 0,0
01.06.2020 03:00:00 14,8 10,8 13,2 18,9 19,4 14,5 11 6 18 10 ENE 1022,2 0,0
01.06.2020 02:00:00 14,9 11,7 13,8 19,3 19,6 14,5 11 6 22 12 ENE 1022,2 0,0
01.06.2020 01:00:00 16,0 11,3 14,9 19,7 19,9 14,5 14 8 25 14 NE 1022,3 0,0
01.06.2020 00:00:00 15,4 8,7 13,8 20,3 20,1 14,5 11 6 11 6 ENE 1022,3 0,0
31.05.2020 23:00:00 16,8 8,5 15,2 20,9 20,3 14,5 11 6 18 10 ENE 1022,1 0,0
31.05.2020 22:00:00 18,5 7,2 17,2 21,6 20,4 14,4 14 8 22 12 ENE 1021,9 0,0
31.05.2020 21:00:00 19,8 6,7 19,1 22,3 20,5 14,4 18 10 29 16 ENE 1021,5 0,0
31.05.2020 20:00:00 20,7 6,3 20,7 22,9 20,4 14,4 22 12 36 19 ENE 1021,3 0,0
31.05.2020 19:00:00 21,2 5,9 22,1 23,3 20,2 14,4 22 12 40 21 ENE 1021,2 0,0
31.05.2020 18:00:00 21,6 7,0 22,9 23,4 20,0 14,4 25 14 36 19 ENE 1021,5 0,0
31.05.2020 17:00:00 21,1 5,7 22,9 23,2 19,6 14,4 25 14 40 21 ENE 1021,8 0,0
31.05.2020 16:00:00 21,1 5,8 23,6 22,8 19,2 14,4 25 14 43 23 ENE 1022,2 0,0
31.05.2020 15:00:00 20,8 5,9 23,4 22,0 18,8 14,4 25 14 40 21 NE 1022,4 0,0
31.05.2020 14:00:00 20,5 4,4 22,9 21,1 18,4 14,4 25 14 47 25 ENE 1022,7 0,0
31.05.2020 13:00:00 20,3 5,2 22,8 20,1 18,1 14,4 29 16 43 23 ENE 1023,0 0,0
31.05.2020 12:00:00 19,8 6,1 22,2 19,1 17,9 14,4 29 16 43 23 NE 1023,2 0,0
31.05.2020 11:00:00 19,5 5,3 21,7 18,3 17,9 14,4 25 14 36 19 ENE 1023,4 0,0
31.05.2020 10:00:00 18,7 7,1 20,6 17,7 17,9 14,4 22 12 32 18 ENE 1023,5 0,0
31.05.2020 09:00:00 17,3 7,5 18,6 17,4 18,0 14,3 18 10 25 14 ENE 1023,5 0,0
31.05.2020 08:00:00 15,9 7,0 16,4 17,4 18,2 14,3 18 10 25 14 E 1023,3 0,0
31.05.2020 07:00:00 14,9 7,4 14,2 17,6 18,4 14,3 11 6 22 12 E 1023,1 0,0
31.05.2020 06:00:00 13,7 8,0 12,3 17,9 18,7 14,3 11 6 18 10 E 1022,8 0,0
31.05.2020 05:00:00 14,6 9,1 13,0 18,3 18,9 14,3 14 8 22 12 ENE 1022,5 0,0
31.05.2020 04:00:00 14,6 9,3 13,0 18,7 19,2 14,3 14 8 18 10 ENE 1022,4 0,0
31.05.2020 03:00:00 15,2 9,0 13,6 19,1 19,4 14,3 11 6 22 12 ENE 1022,5 0,0
31.05.2020 02:00:00 15,8 8,8 14,0 19,6 19,7 14,3 11 6 22 12 ENE 1022,4 0,0
31.05.2020 01:00:00 16,8 9,2 15,9 20,0 19,9 14,3 18 10 25 14 ENE 1022,5 0,0
31.05.2020 00:00:00 17,1 10,8 16,1 20,6 20,2 14,3 18 10 25 14 NE 1022,2 0,0
30.05.2020 23:00:00 17,7 10,6 16,8 21,2 20,4 14,3 14 8 29 16 NE 1022,0 0,0
30.05.2020 22:00:00 19,1 8,6 18,0 21,9 20,5 14,3 18 10 29 16 NE 1021,5 0,0
30.05.2020 21:00:00 20,6 8,7 20,0 22,6 20,5 14,3 14 8 25 14 NE 1021,0 0,0
30.05.2020 20:00:00 22,4 6,0 22,5 23,3 20,4 14,2 18 10 32 18 NE 1021,0 0,0
30.05.2020 19:00:00 23,2 5,4 23,9 23,7 20,2 14,2 18 10 32 18 NE 1021,1 0,0
30.05.2020 18:00:00 23,1 7,1 24,7 23,9 19,9 14,2 25 14 36 19 NE 1021,7 0,0
30.05.2020 17:00:00 23,6 6,6 25,8 23,6 19,5 14,2 22 12 36 19 NE 1022,0 0,0
30.05.2020 16:00:00 24,2 5,5 26,9 23,0 19,0 14,2 14 8 29 16 ENE 1022,4 0,0
30.05.2020 15:00:00 23,5 3,9 26,6 22,1 18,5 14,2 18 10 32 18 E 1022,8 0,0
30.05.2020 14:00:00 22,9 3,9 26,4 21,0 18,1 14,2 18 10 36 19 E 1023,3 0,0
30.05.2020 13:00:00 22,4 4,0 25,3 19,9 17,7 14,2 22 12 36 19 E 1023,6 0,0
30.05.2020 12:00:00 21,6 3,5 24,4 18,8 17,5 14,2 22 12 36 19 ESE 1024,0 0,0
30.05.2020 11:00:00 20,5 5,0 23,4 17,9 17,4 14,2 18 10 32 18 E 1024,3 0,0
30.05.2020 10:00:00 19,0 6,0 20,9 17,2 17,5 14,2 22 12 29 16 E 1024,2 0,0
30.05.2020 09:00:00 17,0 7,7 17,8 16,9 17,6 14,2 18 10 29 16 E 1024,2 0,0
30.05.2020 08:00:00 15,2 7,6 15,6 17,0 17,8 14,2 18 10 29 16 E 1024,1 0,0
30.05.2020 07:00:00 14,1 8,6 13,5 17,1 18,0 14,2 14 8 22 12 ENE 1024,0 0,0
30.05.2020 06:00:00 13,2 8,5 11,9 17,5 18,2 14,2 14 8 22 12 ENE 1023,9 0,0
30.05.2020 05:00:00 13,0 8,9 11,9 17,8 18,5 14,2 14 8 18 10 ENE 1024,0 0,0
30.05.2020 04:00:00 13,3 9,4 12,3 18,2 18,7 14,2 14 8 22 12 NE 1024,2 0,0
30.05.2020 03:00:00 14,2 9,9 13,2 18,6 19,0 14,2 14 8 22 12 ENE 1024,4 0,0
30.05.2020 02:00:00 14,9 10,4 13,8 19,0 19,2 14,2 14 8 25 14 NE 1024,5 0,0
30.05.2020 01:00:00 15,6 10,9 14,6 19,5 19,4 14,1 14 8 22 12 ENE 1024,5 0,0
30.05.2020 00:00:00 16,2 11,5 14,9 20,0 19,7 14,1 14 8 25 14 NE 1024,4 0,0
29.05.2020 23:00:00 15,9 12,1 14,7 20,6 19,9 14,1 14 8 22 12 NE 1024,4 0,0
29.05.2020 22:00:00 16,4 12,4 15,6 21,3 20,0 14,1 14 8 25 14 NNE 1024,3 0,0
29.05.2020 21:00:00 17,6 10,7 17,2 22,0 20,0 14,1 14 8 29 16 N 1024,2 0,0
29.05.2020 20:00:00 18,6 9,4 19,0 22,7 20,0 14,1 18 10 32 18 N 1024,5 0,0
29.05.2020 19:00:00 19,6 9,2 20,7 23,1 19,8 14,1 22 12 32 18 N 1025,0 0,0
29.05.2020 18:00:00 20,1 9,4 21,9 23,3 19,4 14,1 22 12 29 16 N 1025,6 0,0
29.05.2020 17:00:00 20,4 8,2 22,8 23,1 19,0 14,1 22 12 29 16 N 1026,0 0,0
29.05.2020 16:00:00 20,9 -0,9 24,3 22,5 18,5 14,1 18 10 25 14 NNE 1026,7 0,0
29.05.2020 15:00:00 20,7 -0,7 23,9 21,6 18,1 14,1 18 10 25 14 NNE 1027,4 0,0
29.05.2020 14:00:00 19,6 0,1 23,2 20,5 17,6 14,1 14 8 25 14 NNE 1028,1 0,0
29.05.2020 13:00:00 18,7 3,6 22,2 19,3 17,3 14,1 18 10 25 14 NE 1028,8 0,0
29.05.2020 12:00:00 17,6 8,0 21,2 18,2 17,0 14,1 18 10 25 14 NNE 1029,3 0,0
29.05.2020 11:00:00 17,3 8,5 19,6 17,2 16,9 14,1 14 8 22 12 ENE 1029,5 0,0
29.05.2020 10:00:00 15,4 7,1 17,6 16,6 17,0 14,1 14 8 22 12 ENE 1029,7 0,0
29.05.2020 09:00:00 13,3 6,4 15,0 16,3 17,1 14,0 14 8 25 14 ENE 1029,9 0,0
29.05.2020 08:00:00 11,8 6,6 12,6 16,3 17,3 14,0 18 10 25 14 E 1029,9 0,0
29.05.2020 07:00:00 11,1 6,9 10,9 16,5 17,5 14,0 18 10 25 14 ENE 1030,2 0,0
29.05.2020 06:00:00 10,1 6,8 9,2 16,8 17,8 14,0 11 6 22 12 NE 1030,3 0,0
29.05.2020 05:00:00 10,8 7,0 9,9 17,2 18,0 14,0 14 8 29 16 ENE 1030,1 0,0
29.05.2020 04:00:00 11,4 6,6 10,4 17,6 18,3 14,0 18 10 32 18 ENE 1030,3 0,0
29.05.2020 03:00:00 12,0 6,6 11,0 18,0 18,5 14,0 14 8 25 14 ENE 1030,6 0,0
29.05.2020 02:00:00 12,8 6,1 11,9 18,4 18,8 14,0 14 8 29 16 NE 1030,7 0,0
29.05.2020 01:00:00 13,6 6,0 12,8 18,9 19,0 14,0 22 12 29 16 ENE 1030,9 0,0
29.05.2020 00:00:00 14,5 6,3 13,8 19,5 19,3 14,0 18 10 32 18 ENE 1031,0 0,0
28.05.2020 23:00:00 15,4 6,9 14,7 20,1 19,4 14,0 22 12 32 18 NE 1031,0 0,0
28.05.2020 22:00:00 16,7 7,8 16,2 20,7 19,6 14,0 18 10 32 18 NE 1030,9 0,0

tt = temperature
td = dewpoint
tt 5cm = temperature 5cm
tt -5cm = temperature -5cm
tt -20cm = temperature -20cm
tt -100cm = temperature -100cm
ff = wind speed
fx = gusts
dd = wind direction
ppp = reduced air pressure
rr = precipitation

Next stations